sensor_id;sensor_type;location;lat;lon;timestamp;P1;durP1;ratioP1;P2;durP2;ratioP2
66179;SDS011;52986;44.028;20.466;2022-11-14T00:01:57;85.17;;;37.53;;
66179;SDS011;52986;44.028;20.466;2022-11-14T00:04:22;80.80;;;36.05;;
66179;SDS011;52986;44.028;20.466;2022-11-14T00:06:48;76.57;;;34.85;;
66179;SDS011;52986;44.028;20.466;2022-11-14T00:09:13;76.13;;;34.42;;
66179;SDS011;52986;44.028;20.466;2022-11-14T00:11:39;84.45;;;38.55;;
66179;SDS011;52986;44.028;20.466;2022-11-14T00:14:04;77.33;;;35.83;;
66179;SDS011;52986;44.028;20.466;2022-11-14T00:16:30;75.85;;;35.60;;
66179;SDS011;52986;44.028;20.466;2022-11-14T00:18:55;80.57;;;37.15;;
66179;SDS011;52986;44.028;20.466;2022-11-14T00:21:20;78.68;;;35.53;;
66179;SDS011;52986;44.028;20.466;2022-11-14T00:23:46;75.18;;;34.67;;
66179;SDS011;52986;44.028;20.466;2022-11-14T00:26:11;67.55;;;31.95;;
66179;SDS011;52986;44.028;20.466;2022-11-14T00:28:36;68.67;;;31.70;;
66179;SDS011;52986;44.028;20.466;2022-11-14T00:31:02;74.50;;;32.95;;
66179;SDS011;52986;44.028;20.466;2022-11-14T00:33:27;63.33;;;29.88;;
66179;SDS011;52986;44.028;20.466;2022-11-14T00:35:53;66.13;;;29.48;;
66179;SDS011;52986;44.028;20.466;2022-11-14T00:38:20;64.55;;;28.95;;
66179;SDS011;52986;44.028;20.466;2022-11-14T00:40:46;64.07;;;27.25;;
66179;SDS011;52986;44.028;20.466;2022-11-14T00:43:12;61.13;;;28.10;;
66179;SDS011;52986;44.028;20.466;2022-11-14T00:45:37;59.85;;;27.55;;
66179;SDS011;52986;44.028;20.466;2022-11-14T00:48:03;60.42;;;27.20;;
66179;SDS011;52986;44.028;20.466;2022-11-14T00:50:28;59.28;;;26.02;;
66179;SDS011;52986;44.028;20.466;2022-11-14T00:52:54;55.95;;;26.48;;
66179;SDS011;52986;44.028;20.466;2022-11-14T00:55:19;59.67;;;26.50;;
66179;SDS011;52986;44.028;20.466;2022-11-14T00:57:45;59.13;;;24.00;;
66179;SDS011;52986;44.028;20.466;2022-11-14T01:00:11;51.65;;;23.42;;
66179;SDS011;52986;44.028;20.466;2022-11-14T01:02:38;53.92;;;22.92;;
66179;SDS011;52986;44.028;20.466;2022-11-14T01:05:03;53.67;;;24.40;;
66179;SDS011;52986;44.028;20.466;2022-11-14T01:07:29;53.42;;;23.67;;
66179;SDS011;52986;44.028;20.466;2022-11-14T01:09:54;52.28;;;23.23;;
66179;SDS011;52986;44.028;20.466;2022-11-14T01:12:20;50.38;;;21.83;;
66179;SDS011;52986;44.028;20.466;2022-11-14T01:14:45;56.35;;;24.17;;
66179;SDS011;52986;44.028;20.466;2022-11-14T01:17:11;59.20;;;25.27;;
66179;SDS011;52986;44.028;20.466;2022-11-14T01:19:36;56.03;;;24.67;;
66179;SDS011;52986;44.028;20.466;2022-11-14T01:22:02;57.13;;;25.48;;
66179;SDS011;52986;44.028;20.466;2022-11-14T01:24:28;52.72;;;23.75;;
66179;SDS011;52986;44.028;20.466;2022-11-14T01:26:54;55.40;;;24.60;;
66179;SDS011;52986;44.028;20.466;2022-11-14T01:29:20;56.60;;;25.40;;
66179;SDS011;52986;44.028;20.466;2022-11-14T01:31:46;55.28;;;24.58;;
66179;SDS011;52986;44.028;20.466;2022-11-14T01:34:11;53.22;;;24.50;;
66179;SDS011;52986;44.028;20.466;2022-11-14T01:36:36;50.43;;;23.20;;
66179;SDS011;52986;44.028;20.466;2022-11-14T01:39:02;51.15;;;22.95;;
66179;SDS011;52986;44.028;20.466;2022-11-14T01:41:28;53.30;;;22.55;;
66179;SDS011;52986;44.028;20.466;2022-11-14T01:43:53;51.28;;;22.55;;
66179;SDS011;52986;44.028;20.466;2022-11-14T01:54:17;56.53;;;24.35;;
66179;SDS011;52986;44.028;20.466;2022-11-14T01:56:52;52.72;;;23.63;;
66179;SDS011;52986;44.028;20.466;2022-11-14T01:59:22;57.60;;;24.10;;
66179;SDS011;52986;44.028;20.466;2022-11-14T02:01:53;53.95;;;24.48;;
66179;SDS011;52986;44.028;20.466;2022-11-14T02:04:26;64.28;;;27.20;;
66179;SDS011;52986;44.028;20.466;2022-11-14T02:06:56;60.15;;;25.25;;
66179;SDS011;52986;44.028;20.466;2022-11-14T02:09:24;52.17;;;23.10;;
66179;SDS011;52986;44.028;20.466;2022-11-14T02:11:52;48.88;;;22.60;;
66179;SDS011;52986;44.028;20.466;2022-11-14T02:14:21;56.88;;;23.52;;
66179;SDS011;52986;44.028;20.466;2022-11-14T02:16:46;52.80;;;23.42;;
66179;SDS011;52986;44.028;20.466;2022-11-14T02:19:15;50.60;;;22.35;;
66179;SDS011;52986;44.028;20.466;2022-11-14T02:21:41;50.30;;;21.45;;
66179;SDS011;52986;44.028;20.466;2022-11-14T02:24:10;55.55;;;23.10;;
66179;SDS011;52986;44.028;20.466;2022-11-14T02:26:37;52.22;;;21.77;;
66179;SDS011;52986;44.028;20.466;2022-11-14T02:29:03;48.95;;;22.00;;
66179;SDS011;52986;44.028;20.466;2022-11-14T02:31:32;47.15;;;21.52;;
66179;SDS011;52986;44.028;20.466;2022-11-14T02:33:57;51.78;;;22.05;;
66179;SDS011;52986;44.028;20.466;2022-11-14T02:36:23;53.33;;;23.25;;
66179;SDS011;52986;44.028;20.466;2022-11-14T02:38:48;48.85;;;21.83;;
66179;SDS011;52986;44.028;20.466;2022-11-14T02:41:14;51.58;;;23.30;;
66179;SDS011;52986;44.028;20.466;2022-11-14T02:43:40;56.78;;;25.17;;
66179;SDS011;52986;44.028;20.466;2022-11-14T02:46:05;56.42;;;24.23;;
66179;SDS011;52986;44.028;20.466;2022-11-14T02:48:30;54.58;;;24.50;;
66179;SDS011;52986;44.028;20.466;2022-11-14T02:50:56;57.35;;;25.65;;
66179;SDS011;52986;44.028;20.466;2022-11-14T02:53:21;57.30;;;25.90;;
66179;SDS011;52986;44.028;20.466;2022-11-14T02:55:47;57.70;;;23.15;;
66179;SDS011;52986;44.028;20.466;2022-11-14T02:58:12;51.17;;;22.33;;
66179;SDS011;52986;44.028;20.466;2022-11-14T03:00:37;52.60;;;21.95;;
66179;SDS011;52986;44.028;20.466;2022-11-14T03:03:03;49.38;;;21.90;;
66179;SDS011;52986;44.028;20.466;2022-11-14T03:05:28;51.40;;;23.25;;
66179;SDS011;52986;44.028;20.466;2022-11-14T03:07:54;45.25;;;20.35;;
66179;SDS011;52986;44.028;20.466;2022-11-14T03:10:20;47.97;;;21.80;;
66179;SDS011;52986;44.028;20.466;2022-11-14T03:12:46;53.13;;;22.55;;
66179;SDS011;52986;44.028;20.466;2022-11-14T03:15:12;48.55;;;22.48;;
66179;SDS011;52986;44.028;20.466;2022-11-14T03:17:37;49.50;;;22.27;;
66179;SDS011;52986;44.028;20.466;2022-11-14T03:20:03;51.15;;;22.50;;
66179;SDS011;52986;44.028;20.466;2022-11-14T03:22:29;50.03;;;23.08;;
66179;SDS011;52986;44.028;20.466;2022-11-14T03:24:55;50.78;;;23.90;;
66179;SDS011;52986;44.028;20.466;2022-11-14T03:27:20;48.22;;;21.73;;
66179;SDS011;52986;44.028;20.466;2022-11-14T03:29:49;50.38;;;22.92;;
66179;SDS011;52986;44.028;20.466;2022-11-14T03:32:14;53.90;;;24.33;;
66179;SDS011;52986;44.028;20.466;2022-11-14T03:34:40;54.55;;;24.77;;
66179;SDS011;52986;44.028;20.466;2022-11-14T03:37:06;56.22;;;25.13;;
66179;SDS011;52986;44.028;20.466;2022-11-14T03:39:31;53.33;;;24.65;;
66179;SDS011;52986;44.028;20.466;2022-11-14T03:41:57;58.97;;;26.17;;
66179;SDS011;52986;44.028;20.466;2022-11-14T03:44:22;64.18;;;27.33;;
66179;SDS011;52986;44.028;20.466;2022-11-14T03:46:47;58.07;;;26.00;;
66179;SDS011;52986;44.028;20.466;2022-11-14T03:49:13;56.78;;;24.75;;
66179;SDS011;52986;44.028;20.466;2022-11-14T03:51:38;58.88;;;26.05;;
66179;SDS011;52986;44.028;20.466;2022-11-14T03:54:03;61.20;;;29.02;;
66179;SDS011;52986;44.028;20.466;2022-11-14T03:56:29;68.43;;;31.13;;
66179;SDS011;52986;44.028;20.466;2022-11-14T03:58:54;54.95;;;25.67;;
66179;SDS011;52986;44.028;20.466;2022-11-14T04:01:20;56.10;;;25.70;;
66179;SDS011;52986;44.028;20.466;2022-11-14T04:03:45;52.58;;;23.65;;
66179;SDS011;52986;44.028;20.466;2022-11-14T04:06:10;53.42;;;23.10;;
66179;SDS011;52986;44.028;20.466;2022-11-14T04:08:38;51.28;;;22.67;;
66179;SDS011;52986;44.028;20.466;2022-11-14T04:11:04;47.88;;;20.73;;
66179;SDS011;52986;44.028;20.466;2022-11-14T04:13:29;48.13;;;20.55;;
66179;SDS011;52986;44.028;20.466;2022-11-14T04:15:55;50.33;;;21.08;;
66179;SDS011;52986;44.028;20.466;2022-11-14T04:18:22;50.00;;;20.58;;
66179;SDS011;52986;44.028;20.466;2022-11-14T04:20:48;47.03;;;20.55;;
66179;SDS011;52986;44.028;20.466;2022-11-14T04:23:14;50.97;;;22.05;;
66179;SDS011;52986;44.028;20.466;2022-11-14T04:25:39;48.10;;;21.13;;
66179;SDS011;52986;44.028;20.466;2022-11-14T04:28:06;51.55;;;24.08;;
66179;SDS011;52986;44.028;20.466;2022-11-14T04:30:31;48.73;;;21.30;;
66179;SDS011;52986;44.028;20.466;2022-11-14T04:32:57;51.50;;;21.98;;
66179;SDS011;52986;44.028;20.466;2022-11-14T04:35:22;51.00;;;22.40;;
66179;SDS011;52986;44.028;20.466;2022-11-14T04:37:48;50.22;;;22.67;;
66179;SDS011;52986;44.028;20.466;2022-11-14T04:40:13;48.28;;;21.42;;
66179;SDS011;52986;44.028;20.466;2022-11-14T04:42:39;48.15;;;20.83;;
66179;SDS011;52986;44.028;20.466;2022-11-14T04:45:04;44.93;;;20.40;;
66179;SDS011;52986;44.028;20.466;2022-11-14T04:47:30;46.65;;;20.40;;
66179;SDS011;52986;44.028;20.466;2022-11-14T04:49:55;47.78;;;20.95;;
66179;SDS011;52986;44.028;20.466;2022-11-14T04:52:21;51.65;;;22.27;;
66179;SDS011;52986;44.028;20.466;2022-11-14T04:54:46;50.45;;;21.95;;
66179;SDS011;52986;44.028;20.466;2022-11-14T04:57:11;50.20;;;22.03;;
66179;SDS011;52986;44.028;20.466;2022-11-14T04:59:37;48.53;;;20.88;;
66179;SDS011;52986;44.028;20.466;2022-11-14T05:02:02;48.23;;;19.67;;
66179;SDS011;52986;44.028;20.466;2022-11-14T05:04:27;47.53;;;20.98;;
66179;SDS011;52986;44.028;20.466;2022-11-14T05:06:53;47.53;;;20.38;;
66179;SDS011;52986;44.028;20.466;2022-11-14T05:09:18;48.53;;;20.10;;
66179;SDS011;52986;44.028;20.466;2022-11-14T05:11:43;42.90;;;18.43;;
66179;SDS011;52986;44.028;20.466;2022-11-14T05:14:09;45.05;;;20.08;;
66179;SDS011;52986;44.028;20.466;2022-11-14T05:16:34;46.30;;;19.63;;
66179;SDS011;52986;44.028;20.466;2022-11-14T05:19:00;96.20;;;37.92;;
66179;SDS011;52986;44.028;20.466;2022-11-14T05:21:25;48.17;;;19.33;;
66179;SDS011;52986;44.028;20.466;2022-11-14T05:23:51;42.42;;;18.40;;
66179;SDS011;52986;44.028;20.466;2022-11-14T05:26:17;50.53;;;20.88;;
66179;SDS011;52986;44.028;20.466;2022-11-14T05:28:43;48.30;;;20.08;;
66179;SDS011;52986;44.028;20.466;2022-11-14T05:31:10;47.85;;;21.23;;
66179;SDS011;52986;44.028;20.466;2022-11-14T05:33:39;40.35;;;17.63;;
66179;SDS011;52986;44.028;20.466;2022-11-14T05:36:04;45.58;;;18.25;;
66179;SDS011;52986;44.028;20.466;2022-11-14T05:38:32;41.88;;;18.02;;
66179;SDS011;52986;44.028;20.466;2022-11-14T05:40:58;52.25;;;22.88;;
66179;SDS011;52986;44.028;20.466;2022-11-14T05:43:23;54.72;;;22.65;;
66179;SDS011;52986;44.028;20.466;2022-11-14T05:45:49;50.03;;;20.67;;
66179;SDS011;52986;44.028;20.466;2022-11-14T05:48:14;50.30;;;21.55;;
66179;SDS011;52986;44.028;20.466;2022-11-14T05:50:39;56.70;;;23.30;;
66179;SDS011;52986;44.028;20.466;2022-11-14T05:53:05;55.97;;;23.88;;
66179;SDS011;52986;44.028;20.466;2022-11-14T05:55:30;68.35;;;27.48;;
66179;SDS011;52986;44.028;20.466;2022-11-14T05:57:59;67.03;;;29.00;;
66179;SDS011;52986;44.028;20.466;2022-11-14T06:00:25;64.22;;;29.92;;
66179;SDS011;52986;44.028;20.466;2022-11-14T06:02:52;65.47;;;29.30;;
66179;SDS011;52986;44.028;20.466;2022-11-14T06:05:18;65.00;;;28.40;;
66179;SDS011;52986;44.028;20.466;2022-11-14T06:07:44;67.05;;;26.55;;
66179;SDS011;52986;44.028;20.466;2022-11-14T06:10:10;63.75;;;25.63;;
66179;SDS011;52986;44.028;20.466;2022-11-14T06:12:37;60.33;;;25.35;;
66179;SDS011;52986;44.028;20.466;2022-11-14T06:15:03;57.20;;;25.10;;
66179;SDS011;52986;44.028;20.466;2022-11-14T06:17:28;56.28;;;24.48;;
66179;SDS011;52986;44.028;20.466;2022-11-14T06:19:53;58.38;;;26.58;;
66179;SDS011;52986;44.028;20.466;2022-11-14T06:22:19;57.70;;;24.95;;
66179;SDS011;52986;44.028;20.466;2022-11-14T06:24:44;55.15;;;25.15;;
66179;SDS011;52986;44.028;20.466;2022-11-14T06:27:09;53.25;;;24.63;;
66179;SDS011;52986;44.028;20.466;2022-11-14T06:29:35;57.20;;;25.33;;
66179;SDS011;52986;44.028;20.466;2022-11-14T06:32:00;57.63;;;26.15;;
66179;SDS011;52986;44.028;20.466;2022-11-14T06:34:25;61.63;;;28.43;;
66179;SDS011;52986;44.028;20.466;2022-11-14T06:36:51;55.20;;;27.50;;
66179;SDS011;52986;44.028;20.466;2022-11-14T06:39:16;55.40;;;26.43;;
66179;SDS011;52986;44.028;20.466;2022-11-14T06:41:42;61.47;;;30.67;;
66179;SDS011;52986;44.028;20.466;2022-11-14T06:44:07;63.10;;;31.85;;
66179;SDS011;52986;44.028;20.466;2022-11-14T06:46:33;62.67;;;29.73;;
66179;SDS011;52986;44.028;20.466;2022-11-14T06:48:58;62.22;;;30.13;;
66179;SDS011;52986;44.028;20.466;2022-11-14T06:51:24;57.83;;;29.13;;
66179;SDS011;52986;44.028;20.466;2022-11-14T06:53:49;59.00;;;30.30;;
66179;SDS011;52986;44.028;20.466;2022-11-14T06:56:15;56.60;;;28.83;;
66179;SDS011;52986;44.028;20.466;2022-11-14T06:58:42;57.65;;;30.33;;
66179;SDS011;52986;44.028;20.466;2022-11-14T07:01:10;67.50;;;36.00;;
66179;SDS011;52986;44.028;20.466;2022-11-14T07:03:38;68.75;;;35.72;;
66179;SDS011;52986;44.028;20.466;2022-11-14T07:06:04;67.47;;;36.08;;
66179;SDS011;52986;44.028;20.466;2022-11-14T07:08:30;59.45;;;32.08;;
66179;SDS011;52986;44.028;20.466;2022-11-14T07:11:03;61.53;;;32.13;;
66179;SDS011;52986;44.028;20.466;2022-11-14T07:13:30;64.95;;;32.70;;
66179;SDS011;52986;44.028;20.466;2022-11-14T07:15:56;54.38;;;29.58;;
66179;SDS011;52986;44.028;20.466;2022-11-14T07:18:22;60.08;;;30.65;;
66179;SDS011;52986;44.028;20.466;2022-11-14T07:20:47;55.35;;;29.30;;
66179;SDS011;52986;44.028;20.466;2022-11-14T07:23:13;54.97;;;29.13;;
66179;SDS011;52986;44.028;20.466;2022-11-14T07:25:39;58.45;;;31.02;;
66179;SDS011;52986;44.028;20.466;2022-11-14T07:28:05;57.50;;;34.70;;
66179;SDS011;52986;44.028;20.466;2022-11-14T07:30:30;65.00;;;35.65;;
66179;SDS011;52986;44.028;20.466;2022-11-14T07:32:57;63.33;;;35.55;;
66179;SDS011;52986;44.028;20.466;2022-11-14T07:35:22;68.78;;;35.53;;
66179;SDS011;52986;44.028;20.466;2022-11-14T07:37:48;62.63;;;35.30;;
66179;SDS011;52986;44.028;20.466;2022-11-14T07:40:14;53.28;;;30.85;;
66179;SDS011;52986;44.028;20.466;2022-11-14T07:42:40;56.65;;;32.03;;
66179;SDS011;52986;44.028;20.466;2022-11-14T07:45:06;57.95;;;34.47;;
66179;SDS011;52986;44.028;20.466;2022-11-14T07:47:31;60.42;;;35.78;;
66179;SDS011;52986;44.028;20.466;2022-11-14T07:49:57;58.97;;;34.67;;
66179;SDS011;52986;44.028;20.466;2022-11-14T07:52:22;56.38;;;32.72;;
66179;SDS011;52986;44.028;20.466;2022-11-14T07:54:48;58.20;;;34.58;;
66179;SDS011;52986;44.028;20.466;2022-11-14T07:57:13;57.83;;;33.95;;
66179;SDS011;52986;44.028;20.466;2022-11-14T07:59:38;61.10;;;36.17;;
66179;SDS011;52986;44.028;20.466;2022-11-14T08:02:04;53.50;;;32.25;;
66179;SDS011;52986;44.028;20.466;2022-11-14T08:04:30;50.05;;;31.13;;
66179;SDS011;52986;44.028;20.466;2022-11-14T08:06:55;50.63;;;30.67;;
66179;SDS011;52986;44.028;20.466;2022-11-14T08:09:20;52.80;;;32.60;;
66179;SDS011;52986;44.028;20.466;2022-11-14T08:11:47;51.28;;;30.65;;
66179;SDS011;52986;44.028;20.466;2022-11-14T08:14:12;53.67;;;31.38;;
66179;SDS011;52986;44.028;20.466;2022-11-14T08:16:38;51.78;;;31.08;;
66179;SDS011;52986;44.028;20.466;2022-11-14T08:19:04;50.80;;;31.20;;
66179;SDS011;52986;44.028;20.466;2022-11-14T08:21:29;51.20;;;31.27;;
66179;SDS011;52986;44.028;20.466;2022-11-14T08:23:54;51.53;;;29.50;;
66179;SDS011;52986;44.028;20.466;2022-11-14T08:26:20;46.42;;;28.80;;
66179;SDS011;52986;44.028;20.466;2022-11-14T08:28:46;47.15;;;29.02;;
66179;SDS011;52986;44.028;20.466;2022-11-14T08:31:11;48.50;;;31.65;;
66179;SDS011;52986;44.028;20.466;2022-11-14T08:33:37;50.17;;;29.63;;
66179;SDS011;52986;44.028;20.466;2022-11-14T08:36:04;43.90;;;27.70;;
66179;SDS011;52986;44.028;20.466;2022-11-14T08:38:31;43.35;;;25.67;;
66179;SDS011;52986;44.028;20.466;2022-11-14T08:41:01;38.50;;;24.50;;
66179;SDS011;52986;44.028;20.466;2022-11-14T08:43:27;36.25;;;22.48;;
66179;SDS011;52986;44.028;20.466;2022-11-14T08:45:55;35.15;;;22.30;;
66179;SDS011;52986;44.028;20.466;2022-11-14T08:48:22;38.25;;;21.70;;
66179;SDS011;52986;44.028;20.466;2022-11-14T08:50:47;36.45;;;21.05;;
66179;SDS011;52986;44.028;20.466;2022-11-14T08:53:13;38.22;;;22.25;;
66179;SDS011;52986;44.028;20.466;2022-11-14T08:55:42;33.72;;;21.40;;
66179;SDS011;52986;44.028;20.466;2022-11-14T08:58:11;32.58;;;20.67;;
66179;SDS011;52986;44.028;20.466;2022-11-14T09:00:36;33.60;;;19.83;;
66179;SDS011;52986;44.028;20.466;2022-11-14T09:03:10;33.55;;;18.55;;
66179;SDS011;52986;44.028;20.466;2022-11-14T09:05:38;33.15;;;19.70;;
66179;SDS011;52986;44.028;20.466;2022-11-14T09:08:04;33.45;;;20.35;;
66179;SDS011;52986;44.028;20.466;2022-11-14T09:10:30;31.75;;;20.20;;
66179;SDS011;52986;44.028;20.466;2022-11-14T09:12:56;33.20;;;19.73;;
66179;SDS011;52986;44.028;20.466;2022-11-14T09:15:22;33.90;;;19.10;;
66179;SDS011;52986;44.028;20.466;2022-11-14T09:17:51;34.38;;;19.75;;
66179;SDS011;52986;44.028;20.466;2022-11-14T09:20:17;32.63;;;20.42;;
66179;SDS011;52986;44.028;20.466;2022-11-14T09:22:43;31.23;;;18.88;;
66179;SDS011;52986;44.028;20.466;2022-11-14T09:25:09;30.58;;;18.70;;
66179;SDS011;52986;44.028;20.466;2022-11-14T09:27:34;25.88;;;16.25;;
66179;SDS011;52986;44.028;20.466;2022-11-14T09:30:00;24.67;;;14.63;;
66179;SDS011;52986;44.028;20.466;2022-11-14T09:32:25;28.27;;;16.45;;
66179;SDS011;52986;44.028;20.466;2022-11-14T09:34:51;26.25;;;16.25;;
66179;SDS011;52986;44.028;20.466;2022-11-14T09:37:16;25.50;;;15.60;;
66179;SDS011;52986;44.028;20.466;2022-11-14T09:39:41;28.13;;;15.13;;
66179;SDS011;52986;44.028;20.466;2022-11-14T09:45:01;24.20;;;14.70;;
66179;SDS011;52986;44.028;20.466;2022-11-14T09:47:29;25.38;;;15.48;;
66179;SDS011;52986;44.028;20.466;2022-11-14T09:50:03;25.60;;;15.30;;
66179;SDS011;52986;44.028;20.466;2022-11-14T09:55:17;25.48;;;14.57;;
66179;SDS011;52986;44.028;20.466;2022-11-14T09:57:45;18.75;;;11.07;;
66179;SDS011;52986;44.028;20.466;2022-11-14T10:00:12;22.88;;;12.75;;
66179;SDS011;52986;44.028;20.466;2022-11-14T10:02:41;20.70;;;12.23;;
66179;SDS011;52986;44.028;20.466;2022-11-14T10:16:01;25.63;;;13.87;;
66179;SDS011;52986;44.028;20.466;2022-11-14T10:26:28;23.77;;;13.63;;
66179;SDS011;52986;44.028;20.466;2022-11-14T10:29:01;25.48;;;13.38;;
66179;SDS011;52986;44.028;20.466;2022-11-14T10:37:03;24.50;;;12.55;;
66179;SDS011;52986;44.028;20.466;2022-11-14T10:39:49;21.25;;;12.07;;
66179;SDS011;52986;44.028;20.466;2022-11-14T10:47:39;19.20;;;11.18;;
66179;SDS011;52986;44.028;20.466;2022-11-14T10:50:15;19.30;;;11.05;;
66179;SDS011;52986;44.028;20.466;2022-11-14T10:52:47;21.20;;;11.00;;
66179;SDS011;52986;44.028;20.466;2022-11-14T10:55:17;21.13;;;12.65;;
66179;SDS011;52986;44.028;20.466;2022-11-14T10:57:46;21.27;;;11.82;;
66179;SDS011;52986;44.028;20.466;2022-11-14T11:00:16;27.40;;;14.48;;
66179;SDS011;52986;44.028;20.466;2022-11-14T11:02:48;22.83;;;14.15;;
66179;SDS011;52986;44.028;20.466;2022-11-14T11:05:16;25.38;;;14.95;;
66179;SDS011;52986;44.028;20.466;2022-11-14T11:07:43;28.10;;;16.38;;
66179;SDS011;52986;44.028;20.466;2022-11-14T11:10:28;27.65;;;16.33;;
66179;SDS011;52986;44.028;20.466;2022-11-14T11:13:26;35.08;;;17.38;;
66179;SDS011;52986;44.028;20.466;2022-11-14T11:15:55;33.03;;;19.17;;
66179;SDS011;52986;44.028;20.466;2022-11-14T11:18:24;32.90;;;19.67;;
66179;SDS011;52986;44.028;20.466;2022-11-14T11:21:04;34.83;;;20.17;;
66179;SDS011;52986;44.028;20.466;2022-11-14T11:23:32;33.88;;;21.15;;
66179;SDS011;52986;44.028;20.466;2022-11-14T11:26:03;33.80;;;21.60;;
66179;SDS011;52986;44.028;20.466;2022-11-14T11:28:39;32.67;;;21.00;;
66179;SDS011;52986;44.028;20.466;2022-11-14T11:31:08;35.28;;;20.15;;
66179;SDS011;52986;44.028;20.466;2022-11-14T11:33:35;31.63;;;20.20;;
66179;SDS011;52986;44.028;20.466;2022-11-14T11:36:04;28.23;;;18.55;;
66179;SDS011;52986;44.028;20.466;2022-11-14T11:38:34;32.00;;;18.60;;
66179;SDS011;52986;44.028;20.466;2022-11-14T11:41:04;27.52;;;16.98;;
66179;SDS011;52986;44.028;20.466;2022-11-14T11:43:41;31.27;;;17.15;;
66179;SDS011;52986;44.028;20.466;2022-11-14T11:46:59;28.90;;;17.20;;
66179;SDS011;52986;44.028;20.466;2022-11-14T11:49:02;31.52;;;18.70;;
66179;SDS011;52986;44.028;20.466;2022-11-14T11:51:36;30.10;;;18.83;;
66179;SDS011;52986;44.028;20.466;2022-11-14T11:54:14;30.20;;;17.92;;
66179;SDS011;52986;44.028;20.466;2022-11-14T11:56:42;30.52;;;17.48;;
66179;SDS011;52986;44.028;20.466;2022-11-14T12:01:46;26.95;;;16.38;;
66179;SDS011;52986;44.028;20.466;2022-11-14T12:04:11;27.25;;;16.42;;
66179;SDS011;52986;44.028;20.466;2022-11-14T12:06:57;27.15;;;16.38;;
66179;SDS011;52986;44.028;20.466;2022-11-14T12:09:31;25.70;;;15.70;;
66179;SDS011;52986;44.028;20.466;2022-11-14T12:12:03;29.02;;;17.42;;
66179;SDS011;52986;44.028;20.466;2022-11-14T12:14:41;35.10;;;17.55;;
66179;SDS011;52986;44.028;20.466;2022-11-14T12:20:18;31.52;;;17.25;;
66179;SDS011;52986;44.028;20.466;2022-11-14T12:31:02;33.22;;;18.20;;
66179;SDS011;52986;44.028;20.466;2022-11-14T12:33:31;32.75;;;17.90;;
66179;SDS011;52986;44.028;20.466;2022-11-14T12:36:00;32.55;;;17.58;;
66179;SDS011;52986;44.028;20.466;2022-11-14T12:38:31;32.53;;;18.27;;
66179;SDS011;52986;44.028;20.466;2022-11-14T12:41:08;32.97;;;19.58;;
66179;SDS011;52986;44.028;20.466;2022-11-14T12:46:07;33.17;;;20.45;;
66179;SDS011;52986;44.028;20.466;2022-11-14T12:48:35;38.15;;;20.85;;
66179;SDS011;52986;44.028;20.466;2022-11-14T12:51:03;32.55;;;19.42;;
66179;SDS011;52986;44.028;20.466;2022-11-14T12:53:49;34.80;;;20.30;;
66179;SDS011;52986;44.028;20.466;2022-11-14T12:59:04;29.45;;;15.73;;
66179;SDS011;52986;44.028;20.466;2022-11-14T13:12:26;18.77;;;9.05;;
66179;SDS011;52986;44.028;20.466;2022-11-14T13:15:47;33.47;;;17.77;;
66179;SDS011;52986;44.028;20.466;2022-11-14T13:18:48;39.80;;;19.55;;
66179;SDS011;52986;44.028;20.466;2022-11-14T13:21:34;37.00;;;19.38;;
66179;SDS011;52986;44.028;20.466;2022-11-14T13:24:15;40.55;;;18.55;;
66179;SDS011;52986;44.028;20.466;2022-11-14T13:32:11;31.42;;;17.27;;
66179;SDS011;52986;44.028;20.466;2022-11-14T13:34:51;33.70;;;17.23;;
66179;SDS011;52986;44.028;20.466;2022-11-14T13:40:15;32.40;;;16.58;;
66179;SDS011;52986;44.028;20.466;2022-11-14T13:48:29;31.17;;;15.00;;
66179;SDS011;52986;44.028;20.466;2022-11-14T13:50:58;31.55;;;15.82;;
66179;SDS011;52986;44.028;20.466;2022-11-14T13:53:27;34.53;;;16.10;;
66179;SDS011;52986;44.028;20.466;2022-11-14T14:06:28;31.15;;;15.18;;
66179;SDS011;52986;44.028;20.466;2022-11-14T14:14:36;32.70;;;16.63;;
66179;SDS011;52986;44.028;20.466;2022-11-14T14:23:05;35.50;;;17.05;;
66179;SDS011;52986;44.028;20.466;2022-11-14T14:31:17;39.80;;;16.45;;
66179;SDS011;52986;44.028;20.466;2022-11-14T14:33:50;33.38;;;15.30;;
66179;SDS011;52986;44.028;20.466;2022-11-14T14:36:20;36.05;;;15.73;;
66179;SDS011;52986;44.028;20.466;2022-11-14T14:38:48;31.75;;;14.95;;
66179;SDS011;52986;44.028;20.466;2022-11-14T14:41:15;33.42;;;16.02;;
66179;SDS011;52986;44.028;20.466;2022-11-14T14:43:47;35.38;;;17.40;;
66179;SDS011;52986;44.028;20.466;2022-11-14T14:46:15;37.05;;;17.25;;
66179;SDS011;52986;44.028;20.466;2022-11-14T14:48:49;32.90;;;16.92;;
66179;SDS011;52986;44.028;20.466;2022-11-14T14:51:27;33.90;;;17.00;;
66179;SDS011;52986;44.028;20.466;2022-11-14T14:53:54;35.42;;;18.63;;
66179;SDS011;52986;44.028;20.466;2022-11-14T14:56:20;36.88;;;17.60;;
66179;SDS011;52986;44.028;20.466;2022-11-14T14:58:48;35.90;;;18.55;;
66179;SDS011;52986;44.028;20.466;2022-11-14T15:01:15;32.40;;;16.75;;
66179;SDS011;52986;44.028;20.466;2022-11-14T15:03:49;30.55;;;15.95;;
66179;SDS011;52986;44.028;20.466;2022-11-14T15:06:30;37.88;;;19.10;;
66179;SDS011;52986;44.028;20.466;2022-11-14T15:09:17;39.20;;;18.35;;
66179;SDS011;52986;44.028;20.466;2022-11-14T15:11:45;41.28;;;20.83;;
66179;SDS011;52986;44.028;20.466;2022-11-14T15:14:15;43.40;;;19.95;;
66179;SDS011;52986;44.028;20.466;2022-11-14T15:16:44;49.25;;;26.27;;
66179;SDS011;52986;44.028;20.466;2022-11-14T15:19:14;44.70;;;22.83;;
66179;SDS011;52986;44.028;20.466;2022-11-14T15:21:40;47.38;;;23.77;;
66179;SDS011;52986;44.028;20.466;2022-11-14T15:26:43;49.67;;;24.92;;
66179;SDS011;52986;44.028;20.466;2022-11-14T15:29:17;57.13;;;27.85;;
66179;SDS011;52986;44.028;20.466;2022-11-14T15:31:45;66.38;;;30.52;;
66179;SDS011;52986;44.028;20.466;2022-11-14T15:39:33;59.63;;;28.50;;
66179;SDS011;52986;44.028;20.466;2022-11-14T15:42:12;84.28;;;37.60;;
66179;SDS011;52986;44.028;20.466;2022-11-14T15:44:42;68.18;;;33.72;;
66179;SDS011;52986;44.028;20.466;2022-11-14T15:47:16;85.10;;;36.50;;
66179;SDS011;52986;44.028;20.466;2022-11-14T15:49:50;89.80;;;42.30;;
66179;SDS011;52986;44.028;20.466;2022-11-14T15:52:37;98.32;;;40.20;;
66179;SDS011;52986;44.028;20.466;2022-11-14T15:55:11;76.60;;;38.47;;
66179;SDS011;52986;44.028;20.466;2022-11-14T15:57:40;82.03;;;39.58;;
66179;SDS011;52986;44.028;20.466;2022-11-14T16:00:06;82.38;;;38.95;;
66179;SDS011;52986;44.028;20.466;2022-11-14T16:02:39;86.53;;;40.53;;
66179;SDS011;52986;44.028;20.466;2022-11-14T16:05:10;76.55;;;38.70;;
66179;SDS011;52986;44.028;20.466;2022-11-14T16:07:38;81.35;;;38.90;;
66179;SDS011;52986;44.028;20.466;2022-11-14T16:10:14;99.22;;;47.60;;
66179;SDS011;52986;44.028;20.466;2022-11-14T16:12:42;95.90;;;47.42;;
66179;SDS011;52986;44.028;20.466;2022-11-14T16:15:07;93.72;;;45.15;;
66179;SDS011;52986;44.028;20.466;2022-11-14T16:17:34;111.07;;;53.85;;